Time;durP1;ratioP1;P1;durP2;ratioP2;P2;SDS_P1;SDS_P2;PMS_P1;PMS_P2;Temp;Humidity;BMP_temperature;BMP_pressure;BME280_temperature;BME280_humidity;BME280_pressure;Samples;Min_cycle;Max_cycle;Signal;HPM_P1;HPM_P2
2022/03/28 00:00:06;;;;;;;1.02;0.82;;;;;;;-5.89;47.10;99499.22;5098295;28;20060;-77
2022/03/28 00:02:37;;;;;;;1.42;1.00;;;;;;;-5.91;46.95;99516.06;5078536;28;20416;-79
2022/03/28 00:05:04;;;;;;;0.80;0.80;;;;;;;-5.88;46.88;99511.16;5103178;28;20028;-75
2022/03/28 00:07:31;;;;;;;1.50;1.08;;;;;;;-5.93;47.09;99507.47;5117346;28;20082;-76
2022/03/28 00:09:59;;;;;;;2.33;1.23;;;;;;;-5.91;47.25;99513.53;5116422;28;20052;-77
2022/03/28 00:12:25;;;;;;;3.70;1.48;;;;;;;-5.94;47.21;99513.34;5099305;28;20097;-76
2022/03/28 00:14:52;;;;;;;2.85;1.58;;;;;;;-5.93;47.46;99510.88;5100460;28;20052;-77
2022/03/28 00:17:19;;;;;;;3.00;1.33;;;;;;;-5.92;47.09;99514.28;5099920;28;20055;-79
2022/03/28 00:19:46;;;;;;;3.60;1.48;;;;;;;-5.97;47.60;99509.81;5099767;28;20105;-77
2022/03/28 00:22:13;;;;;;;2.30;1.25;;;;;;;-6.00;47.58;99499.47;5099767;28;20052;-78
2022/03/28 00:24:40;;;;;;;3.03;1.20;;;;;;;-6.01;47.78;99512.09;5099542;28;20059;-77
2022/03/28 00:27:07;;;;;;;5.10;1.30;;;;;;;-5.99;47.39;99515.59;5099366;28;20051;-79
2022/03/28 00:29:34;;;;;;;2.13;1.15;;;;;;;-6.04;47.38;99510.25;5099527;28;20048;-77
2022/03/28 00:32:01;;;;;;;3.65;1.23;;;;;;;-6.05;47.91;99500.81;5081524;28;20502;-77
2022/03/28 00:34:28;;;;;;;2.75;1.50;;;;;;;-6.14;48.21;99482.47;5099701;28;20055;-78
2022/03/28 00:36:55;;;;;;;2.58;1.00;;;;;;;-6.01;47.92;99500.25;5099438;28;20501;-77
2022/03/28 00:39:24;;;;;;;1.80;1.13;;;;;;;-6.14;48.31;99489.22;5100513;28;20048;-78
2022/03/28 00:41:52;;;;;;;1.73;1.00;;;;;;;-6.04;48.04;99506.81;5099449;28;20121;-77
2022/03/28 00:44:19;;;;;;;1.58;1.10;;;;;;;-6.02;48.34;99492.53;5099349;28;20147;-77
2022/03/28 00:46:46;;;;;;;1.25;1.00;;;;;;;-6.07;48.35;99504.94;5099225;28;20098;-76
2022/03/28 00:49:14;;;;;;;1.75;1.08;;;;;;;-6.10;48.73;99491.16;5099346;28;20523;-77
2022/03/28 00:51:41;;;;;;;1.83;1.25;;;;;;;-6.16;48.52;99481.47;5099179;28;20148;-77
2022/03/28 00:54:09;;;;;;;1.08;0.82;;;;;;;-6.13;48.44;99489.31;5099624;28;20139;-78
2022/03/28 00:56:37;;;;;;;2.80;1.40;;;;;;;-6.18;48.96;99485.59;5099780;28;20055;-77
2022/03/28 00:59:04;;;;;;;1.85;1.08;;;;;;;-6.32;49.13;99446.59;5099314;28;20063;-80
2022/03/28 01:01:31;;;;;;;1.30;0.80;;;;;;;-6.07;48.99;99501.53;5099725;28;20104;-78
2022/03/28 01:03:58;;;;;;;2.25;1.13;;;;;;;-6.12;48.83;99487.66;5098891;28;20135;-78
2022/03/28 01:06:25;;;;;;;2.65;1.27;;;;;;;-6.06;49.57;99504.16;5099385;28;20086;-77
2022/03/28 01:08:52;;;;;;;2.80;1.40;;;;;;;-6.06;49.14;99490.59;5098853;28;20052;-78
2022/03/28 01:11:20;;;;;;;1.90;1.23;;;;;;;-6.07;49.09;99486.25;5099096;28;20048;-77
2022/03/28 01:13:47;;;;;;;3.30;1.33;;;;;;;-6.06;49.59;99486.38;5098888;28;20075;-78
2022/03/28 01:16:14;;;;;;;3.28;1.38;;;;;;;-6.08;49.08;99487.06;5099020;28;20501;-75
2022/03/28 01:18:47;;;;;;;3.35;1.73;;;;;;;-6.05;49.19;99480.47;5098771;28;20102;-77
2022/03/28 01:21:19;;;;;;;2.08;1.88;;;;;;;-6.30;49.18;99454.28;5099014;28;20059;-78
2022/03/28 01:23:46;;;;;;;4.60;1.75;;;;;;;-6.07;49.60;99476.97;5099356;28;20060;-78
2022/03/28 01:26:15;;;;;;;3.38;1.50;;;;;;;-6.41;49.72;99429.09;5094942;28;20109;-78
2022/03/28 01:28:42;;;;;;;4.75;1.60;;;;;;;-6.10;49.37;99476.78;5095815;28;20052;-77
2022/03/28 01:31:09;;;;;;;2.97;1.48;;;;;;;-6.19;49.71;99463.50;5095883;28;20051;-79
2022/03/28 01:33:36;;;;;;;2.55;1.42;;;;;;;-6.09;49.58;99488.69;5098394;28;20521;-76
2022/03/28 01:36:03;;;;;;;1.63;1.33;;;;;;;-6.10;49.64;99483.53;5097902;28;20063;-79
2022/03/28 01:38:30;;;;;;;2.38;1.60;;;;;;;-6.16;49.34;99491.66;5096015;28;20589;-78
2022/03/28 01:40:57;;;;;;;2.42;1.48;;;;;;;-6.21;50.17;99481.19;5095629;28;20056;-78
2022/03/28 01:43:24;;;;;;;4.93;1.55;;;;;;;-6.48;49.80;99433.69;5095510;28;20059;-77
2022/03/28 01:45:52;;;;;;;2.72;1.17;;;;;;;-6.22;50.04;99489.59;5077689;28;20048;-77
2022/03/28 01:48:19;;;;;;;2.25;1.40;;;;;;;-6.14;50.23;99492.63;5095282;28;20429;-78
2022/03/28 01:50:46;;;;;;;2.95;1.58;;;;;;;-6.15;49.92;99508.69;5095569;28;20147;-78
2022/03/28 01:53:13;;;;;;;5.15;1.58;;;;;;;-6.21;50.05;99481.19;5095790;28;20059;-78
2022/03/28 01:55:41;;;;;;;2.05;1.55;;;;;;;-6.21;50.40;99483.72;5078814;28;20421;-80
2022/03/28 01:58:08;;;;;;;5.40;1.25;;;;;;;-6.12;50.17;99492.75;5100351;28;20051;-80
2022/03/28 02:00:36;;;;;;;6.53;1.60;;;;;;;-6.15;50.23;99485.78;5100579;28;20074;-79
2022/03/28 02:03:03;;;;;;;1.63;1.40;;;;;;;-6.13;50.29;99489.31;5094613;28;20044;-78
2022/03/28 02:05:30;;;;;;;3.80;1.30;;;;;;;-6.09;50.12;99467.47;5094945;28;20105;-77
2022/03/28 02:07:59;;;;;;;3.58;1.70;;;;;;;-6.05;50.66;99482.16;5094857;28;20052;-77
2022/03/28 02:10:26;;;;;;;7.20;2.72;;;;;;;-6.14;49.89;99451.94;5094407;28;20052;-77
2022/03/28 02:12:54;;;;;;;10.77;3.78;;;;;;;-6.35;50.11;99404.84;5103658;28;20058;-78
2022/03/28 02:15:21;;;;;;;16.65;5.28;;;;;;;-6.03;50.16;99460.25;5098481;28;20078;-79
2022/03/28 02:17:49;;;;;;;6.50;2.72;;;;;;;-6.32;49.94;99408.47;5099002;28;20044;-76
2022/03/28 02:20:17;;;;;;;5.85;2.42;;;;;;;-6.15;49.87;99447.66;5093116;28;20071;-78
2022/03/28 02:22:46;;;;;;;10.50;4.25;;;;;;;-6.01;50.07;99471.41;5094688;28;20051;-77
2022/03/28 02:25:15;;;;;;;9.55;4.18;;;;;;;-6.08;50.07;99471.81;5094246;28;20059;-78
2022/03/28 02:27:43;;;;;;;6.88;3.25;;;;;;;-6.16;49.64;99461.13;5094744;28;20080;-79
2022/03/28 02:30:12;;;;;;;32.88;10.55;;;;;;;-6.06;50.12;99467.69;5076464;28;20048;-79
2022/03/28 02:32:38;;;;;;;9.90;4.05;;;;;;;-5.94;49.48;99480.28;5099675;28;20058;-80
2022/03/28 02:35:07;;;;;;;9.73;4.68;;;;;;;-6.26;50.00;99413.03;5094499;28;20056;-79
2022/03/28 02:37:34;;;;;;;18.52;7.72;;;;;;;-5.97;49.55;99473.34;5099450;28;20105;-79
2022/03/28 02:40:03;;;;;;;13.32;7.72;;;;;;;-6.00;50.06;99462.97;5121610;28;20050;-78
2022/03/28 02:42:30;;;;;;;10.80;4.65;;;;;;;-6.20;49.96;99427.00;5136608;28;20055;-78
2022/03/28 02:44:57;;;;;;;13.50;7.20;;;;;;;-6.05;49.85;99460.13;5121574;28;20052;-77
2022/03/28 02:47:24;;;;;;;3.38;1.80;;;;;;;-5.95;49.94;99465.81;5076273;28;20192;-77
2022/03/28 02:49:51;;;;;;;3.45;1.70;;;;;;;-5.86;49.47;99476.53;5094180;28;20056;-80
2022/03/28 02:52:17;;;;;;;2.95;1.50;;;;;;;-6.08;49.44;99433.66;5094283;28;20099;-78
2022/03/28 02:54:44;;;;;;;2.60;1.17;;;;;;;-5.84;49.86;99464.78;5075993;28;20471;-78
2022/03/28 02:57:11;;;;;;;5.38;1.88;;;;;;;-5.73;49.68;99478.16;5094326;28;20048;-79
2022/03/28 02:59:38;;;;;;;4.82;1.45;;;;;;;-5.74;48.84;99454.38;5094378;28;20052;-77
2022/03/28 03:02:05;;;;;;;3.28;1.38;;;;;;;-5.56;49.00;99483.47;5093608;28;20051;-79
2022/03/28 03:04:33;;;;;;;4.53;1.45;;;;;;;-5.59;48.91;99460.41;5093704;28;20052;-77
2022/03/28 03:07:01;;;;;;;5.78;1.95;;;;;;;-5.38;48.97;99465.00;5075471;28;20075;-77
2022/03/28 03:09:28;;;;;;;2.72;1.35;;;;;;;-5.26;48.61;99464.88;5075689;28;20056;-78
2022/03/28 03:11:56;;;;;;;3.92;1.55;;;;;;;-5.16;48.64;99460.44;5093646;28;20139;-78
2022/03/28 03:14:23;;;;;;;7.90;1.80;;;;;;;-5.47;48.24;99395.75;5093726;28;20050;-77
2022/03/28 03:16:50;;;;;;;3.67;1.60;;;;;;;-5.23;48.46;99430.28;5094140;28;20190;-78
2022/03/28 03:19:18;;;;;;;5.43;1.80;;;;;;;-5.02;48.21;99460.34;5093829;28;20059;-78
2022/03/28 03:21:48;;;;;;;4.90;2.30;;;;;;;-4.99;48.05;99456.31;5075834;28;20047;-78
2022/03/28 03:24:15;;;;;;;4.07;1.55;;;;;;;-4.94;47.84;99442.16;5093689;28;20147;-78
2022/03/28 03:26:43;;;;;;;11.40;4.63;;;;;;;-4.75;47.52;99454.31;5093394;28;20051;-78
2022/03/28 03:29:09;;;;;;;5.50;1.70;;;;;;;-4.72;47.60;99450.19;5093515;28;20048;-78
2022/03/28 03:31:36;;;;;;;4.30;1.83;;;;;;;-4.75;47.58;99439.03;5094564;28;20406;-78
2022/03/28 03:34:03;;;;;;;23.08;8.05;;;;;;;-4.58;47.69;99445.06;5102077;28;20060;-78
2022/03/28 03:36:30;;;;;;;6.38;1.73;;;;;;;-4.64;47.13;99428.56;5094064;28;20056;-80
2022/03/28 03:38:57;;;;;;;8.32;2.42;;;;;;;-4.55;47.12;99421.41;5093497;28;20132;-79
2022/03/28 03:41:24;;;;;;;5.57;2.05;;;;;;;-4.40;47.21;99445.22;5093664;28;20051;-79
2022/03/28 03:43:51;;;;;;;3.50;1.83;;;;;;;-4.37;46.95;99427.53;5076857;28;20056;-80
2022/03/28 03:46:18;;;;;;;4.18;1.77;;;;;;;-4.44;46.87;99410.13;5076659;28;20055;-80
2022/03/28 03:48:45;;;;;;;4.55;1.60;;;;;;;-4.32;46.57;99423.56;5098663;28;20054;-79
2022/03/28 03:51:13;;;;;;;7.13;2.00;;;;;;;-4.22;46.76;99445.34;5093412;28;20058;-78
2022/03/28 03:53:40;;;;;;;4.82;1.33;;;;;;;-4.27;46.26;99410.22;5088174;28;20593;-78
2022/03/28 03:56:07;;;;;;;2.72;1.40;;;;;;;-4.34;46.54;99375.84;5083399;28;20581;-79
2022/03/28 03:58:34;;;;;;;3.75;1.30;;;;;;;-4.08;46.13;99418.06;5064273;28;20044;-78
2022/03/28 04:01:02;;;;;;;2.90;1.38;;;;;;;-4.13;45.80;99389.75;5090464;28;20059;-76
2022/03/28 04:03:32;;;;;;;6.78;1.67;;;;;;;-3.86;45.73;99416.66;5093279;28;20048;-80
2022/03/28 04:06:00;;;;;;;3.72;1.88;;;;;;;-3.80;45.74;99427.19;5074897;28;20059;-79
2022/03/28 04:08:38;;;;;;;4.32;1.60;;;;;;;-3.97;45.53;99382.91;5093126;28;20509;-77
2022/03/28 04:11:08;;;;;;;7.68;1.85;;;;;;;-3.99;45.48;99370.06;5067092;28;20398;-76
2022/03/28 04:13:35;;;;;;;3.95;1.67;;;;;;;-3.72;45.56;99411.50;5086086;28;20181;-78
2022/03/28 04:16:03;;;;;;;3.22;1.58;;;;;;;-3.49;45.30;99424.56;5092562;28;20044;-77
2022/03/28 04:18:30;;;;;;;4.13;1.83;;;;;;;-3.27;44.87;99411.22;5087320;28;20513;-80
2022/03/28 04:20:58;;;;;;;6.75;1.75;;;;;;;-3.11;44.43;99402.66;5092950;28;20048;-77
2022/03/28 04:23:25;;;;;;;6.00;1.75;;;;;;;-2.76;43.54;99403.53;5093125;28;20081;-78
2022/03/28 04:25:55;;;;;;;6.45;2.15;;;;;;;-2.27;43.36;99429.78;5092337;28;20055;-81
2022/03/28 04:28:22;;;;;;;5.33;2.00;;;;;;;-1.82;42.62;99419.06;5102389;28;20056;-80
2022/03/28 04:30:51;;;;;;;9.23;2.13;;;;;;;-1.81;42.09;99369.59;5109583;28;20278;-78
2022/03/28 04:33:19;;;;;;;6.18;1.90;;;;;;;-1.35;41.27;99420.28;5109582;28;20056;-81
2022/03/28 04:35:46;;;;;;;9.80;1.95;;;;;;;-1.20;40.83;99389.34;5104585;28;20129;-80
2022/03/28 04:38:13;;;;;;;4.18;2.03;;;;;;;-1.14;40.67;99379.34;5109219;28;20059;-78
2022/03/28 04:40:45;;;;;;;5.13;1.70;;;;;;;-1.06;40.28;99406.16;5084905;28;20070;-80
2022/03/28 04:43:15;;;;;;;5.78;1.65;;;;;;;-1.11;40.58;99387.16;5105389;28;20072;-79
2022/03/28 04:45:42;;;;;;;5.93;2.05;;;;;;;-1.28;40.51;99359.94;5110517;28;20059;-83
2022/03/28 04:48:09;;;;;;;6.90;2.22;;;;;;;-1.00;40.43;99382.47;5106095;28;20039;-84
2022/03/28 04:50:37;;;;;;;9.07;2.55;;;;;;;-0.86;39.96;99407.00;5095826;28;20478;-81
2022/03/28 04:53:04;;;;;;;6.63;2.28;;;;;;;-0.92;40.04;99386.22;5113842;28;20054;-81
2022/03/28 04:55:34;;;;;;;7.38;3.50;;;;;;;-1.02;39.94;99383.22;5116399;28;20051;-80
2022/03/28 04:58:02;;;;;;;8.25;2.88;;;;;;;-1.08;40.58;99391.53;5097132;28;20114;-82
2022/03/28 05:00:33;;;;;;;7.20;2.58;;;;;;;-1.67;39.99;99281.44;5116586;28;20085;-79
2022/03/28 05:03:00;;;;;;;11.88;2.85;;;;;;;-1.29;39.77;99342.78;5101015;28;20090;-82
2022/03/28 05:05:27;;;;;;;7.30;3.08;;;;;;;-1.24;39.76;99372.06;5118538;28;20047;-84
2022/03/28 05:07:55;;;;;;;8.93;2.60;;;;;;;-1.45;40.17;99344.69;5119452;28;20054;-82
2022/03/28 05:10:23;;;;;;;7.50;2.30;;;;;;;-1.25;40.15;99347.22;5102672;28;20047;-83
2022/03/28 05:12:50;;;;;;;7.20;2.92;;;;;;;-0.88;39.81;99370.16;5107789;28;20048;-81
2022/03/28 05:15:17;;;;;;;12.13;2.50;;;;;;;-0.87;39.29;99356.50;5136621;28;20058;-82
2022/03/28 05:17:44;;;;;;;11.30;2.58;;;;;;;-1.10;39.43;99317.13;5141766;28;20081;-80
2022/03/28 05:20:11;;;;;;;8.98;2.95;;;;;;;-1.25;39.45;99332.75;5106409;28;20055;-78
2022/03/28 05:22:44;;;;;;;12.55;3.38;;;;;;;-1.36;40.11;99340.78;5099055;28;20464;-78
2022/03/28 05:25:11;;;;;;;13.20;3.45;;;;;;;-1.19;40.11;99364.56;5117350;28;20203;-82
2022/03/28 05:27:45;;;;;;;10.38;3.60;;;;;;;-1.21;39.47;99317.50;5116838;28;20095;-82
2022/03/28 05:30:13;;;;;;;11.50;2.88;;;;;;;-0.89;39.62;99336.75;5116657;28;20060;-81
2022/03/28 05:32:42;;;;;;;10.20;2.83;;;;;;;-0.97;39.02;99308.22;5123469;28;20043;-80
2022/03/28 05:35:10;;;;;;;11.40;2.38;;;;;;;-0.79;39.19;99315.81;5125155;28;20052;-81
2022/03/28 05:37:37;;;;;;;7.95;2.90;;;;;;;-0.60;39.03;99324.19;5125362;28;20112;-81
2022/03/28 05:40:05;;;;;;;8.48;2.42;;;;;;;-0.68;38.47;99318.78;5100513;28;20074;-82
2022/03/28 05:42:32;;;;;;;5.20;2.15;;;;;;;-0.91;38.69;99326.44;5116572;28;20062;-80
2022/03/28 05:44:59;;;;;;;5.47;2.30;;;;;;;-1.05;39.15;99299.38;5098152;28;20457;-77
2022/03/28 05:47:26;;;;;;;5.90;2.42;;;;;;;-0.85;39.07;99283.09;5115948;28;20059;-80
2022/03/28 05:49:53;;;;;;;7.53;2.53;;;;;;;-0.87;39.03;99305.22;5116271;28;20051;-80
2022/03/28 05:52:20;;;;;;;9.98;2.65;;;;;;;-0.76;39.00;99310.78;5097938;28;20052;-80
2022/03/28 05:54:47;;;;;;;9.35;2.78;;;;;;;-0.78;39.15;99304.72;5100586;28;20051;-78
2022/03/28 05:57:13;;;;;;;9.75;2.85;;;;;;;-0.84;39.16;99284.84;5074479;28;20052;-83
2022/03/28 05:59:40;;;;;;;8.55;2.72;;;;;;;-0.73;38.96;99302.31;5108676;28;20104;-82
2022/03/28 06:02:07;;;;;;;10.23;2.83;;;;;;;-0.70;38.81;99290.50;5119543;28;20052;-79
2022/03/28 06:04:34;;;;;;;10.02;3.88;;;;;;;-0.58;38.66;99289.22;5117118;28;20428;-79
2022/03/28 06:07:01;;;;;;;8.20;2.50;;;;;;;-0.83;38.78;99260.06;5098875;28;20100;-78
2022/03/28 06:09:28;;;;;;;6.15;2.38;;;;;;;-0.91;39.23;99262.31;5116489;28;20055;-79
2022/03/28 06:11:55;;;;;;;8.23;2.22;;;;;;;-0.86;39.16;99245.44;5116955;28;20108;-80
2022/03/28 06:14:22;;;;;;;9.48;2.38;;;;;;;-0.70;38.72;99261.41;5115663;28;20083;-81
2022/03/28 06:16:49;;;;;;;11.18;2.65;;;;;;;-0.83;38.85;99219.91;5116086;28;20134;-81
2022/03/28 06:19:16;;;;;;;7.95;2.40;;;;;;;-1.08;38.81;99207.81;5115488;28;20134;-83
2022/03/28 06:21:43;;;;;;;5.78;2.65;;;;;;;-1.00;39.17;99249.16;5097694;28;20485;-81
2022/03/28 06:24:10;;;;;;;8.00;2.92;;;;;;;-1.21;39.36;99209.84;5115256;28;20053;-80
2022/03/28 06:26:36;;;;;;;4.43;2.42;;;;;;;-1.42;39.14;99184.22;5097701;28;20048;-81
2022/03/28 06:29:04;;;;;;;9.40;1.95;;;;;;;-1.15;39.26;99221.22;5115134;28;20047;-80
2022/03/28 06:31:31;;;;;;;5.70;2.13;;;;;;;-1.24;39.07;99184.97;5115769;28;20058;-81
2022/03/28 06:34:02;;;;;;;5.38;2.13;;;;;;;-0.97;39.10;99203.09;5104184;28;20410;-80
2022/03/28 06:36:30;;;;;;;5.85;2.40;;;;;;;-0.93;39.10;99220.34;5105740;28;20048;-80
2022/03/28 06:38:57;;;;;;;7.07;2.65;;;;;;;-1.13;38.71;99142.69;5096744;28;20086;-84
2022/03/28 06:41:24;;;;;;;3.17;2.10;;;;;;;-0.64;38.48;99200.97;5062355;28;20532;-83
2022/03/28 06:43:51;;;;;;;8.65;2.78;;;;;;;-0.60;38.57;99170.28;5097212;28;20047;-81
2022/03/28 06:46:20;;;;;;;7.35;2.15;;;;;;;-0.38;38.04;99162.56;5098915;28;20048;-79
2022/03/28 06:48:49;;;;;;;2.47;1.67;;;;;;;-0.39;38.10;99167.63;5066425;28;20154;-81
2022/03/28 06:51:16;;;;;;;5.07;2.03;;;;;;;-0.64;38.25;99134.25;5095635;28;20422;-80
2022/03/28 06:53:48;;;;;;;3.75;1.80;;;;;;;-0.64;37.79;99164.19;5078516;28;20433;-80
2022/03/28 06:56:18;;;;;;;8.45;1.55;;;;;;;-1.05;38.35;99104.53;5110910;28;20063;-81
2022/03/28 06:58:45;;;;;;;5.45;1.60;;;;;;;-0.75;38.12;99150.97;5092690;28;20055;-80
2022/03/28 07:01:12;;;;;;;5.03;1.90;;;;;;;-0.68;38.06;99132.41;5107169;28;20110;-79
2022/03/28 07:03:39;;;;;;;4.65;1.58;;;;;;;-0.74;37.68;99078.31;5097644;28;20525;-80
2022/03/28 07:06:07;;;;;;;6.22;1.83;;;;;;;-0.52;37.69;99123.56;5095128;28;20048;-80
2022/03/28 07:08:35;;;;;;;5.28;1.90;;;;;;;-1.01;37.14;99014.13;5077365;28;20052;-80
2022/03/28 07:11:03;;;;;;;3.75;1.67;;;;;;;-0.22;36.56;99089.50;5095896;28;20044;-80
2022/03/28 07:13:30;;;;;;;9.68;2.20;;;;;;;-0.09;36.64;99094.22;5093941;28;20052;-77
2022/03/28 07:15:57;;;;;;;3.95;1.52;;;;;;;-0.12;36.69;99059.91;5094217;28;20052;-78
2022/03/28 07:18:24;;;;;;;4.97;1.85;;;;;;;-0.22;36.74;99084.38;5075934;28;20054;-79
2022/03/28 07:20:52;;;;;;;4.18;1.75;;;;;;;-0.22;36.68;99104.91;5095526;28;20063;-78
2022/03/28 07:23:19;;;;;;;5.95;1.77;;;;;;;-0.19;36.97;99101.56;5077907;28;20052;-79
2022/03/28 07:25:49;;;;;;;2.70;1.48;;;;;;;-0.27;36.90;99099.63;5077098;28;20074;-78
2022/03/28 07:28:17;;;;;;;6.25;1.48;;;;;;;-0.32;36.62;99072.06;5099811;28;20105;-79
2022/03/28 07:30:44;;;;;;;4.60;1.67;;;;;;;-0.21;36.64;99060.47;5095756;28;20559;-80
2022/03/28 07:33:12;;;;;;;2.28;1.70;;;;;;;0.07;36.49;99075.09;5078498;28;20052;-79
2022/03/28 07:35:40;;;;;;;6.18;1.52;;;;;;;0.02;36.12;99058.63;5094079;28;20056;-79
2022/03/28 07:38:08;;;;;;;2.35;1.50;;;;;;;-0.31;36.28;99007.09;5093327;28;20056;-79
2022/03/28 07:40:36;;;;;;;9.63;1.75;;;;;;;-0.21;36.30;99024.53;5094071;28;20056;-79
2022/03/28 07:43:05;;;;;;;5.97;1.67;;;;;;;-0.21;35.93;98994.59;5093879;28;20081;-79
2022/03/28 07:45:32;;;;;;;3.80;1.83;;;;;;;0.00;35.64;99001.25;5095221;28;20055;-79
2022/03/28 07:47:59;;;;;;;7.20;1.77;;;;;;;0.16;35.35;99018.00;5097811;28;20052;-79
2022/03/28 07:50:26;;;;;;;5.05;1.83;;;;;;;0.26;35.35;99009.78;5115971;28;20042;-78
2022/03/28 07:52:53;;;;;;;5.03;1.20;;;;;;;0.25;34.88;99010.56;5118394;28;20081;-78
2022/03/28 07:55:20;;;;;;;6.97;2.20;;;;;;;0.09;35.85;98993.84;5097004;28;20056;-80
2022/03/28 07:57:47;;;;;;;6.30;2.03;;;;;;;-0.33;35.06;98918.91;5076374;28;20520;-80
2022/03/28 08:00:17;;;;;;;4.45;1.92;;;;;;;-0.53;35.05;98939.66;5094158;28;20066;-80
2022/03/28 08:02:51;;;;;;;6.25;1.48;;;;;;;-0.46;35.52;98961.25;5094667;28;20076;-78
2022/03/28 08:05:19;;;;;;;4.65;1.65;;;;;;;-0.97;35.72;98886.88;5077510;28;20048;-79
2022/03/28 08:07:51;;;;;;;4.05;1.75;;;;;;;-0.44;35.68;98957.03;5094437;28;20040;-81
2022/03/28 08:10:20;;;;;;;5.57;1.60;;;;;;;-0.24;35.82;98956.00;5060115;28;20052;-78
2022/03/28 08:12:48;;;;;;;7.18;2.83;;;;;;;-0.42;35.83;98904.94;5094593;28;20146;-80
2022/03/28 08:15:21;;;;;;;3.13;1.48;;;;;;;-0.30;35.52;98940.41;5094053;28;20055;-81
2022/03/28 08:17:49;;;;;;;3.30;1.20;;;;;;;-0.75;36.55;98920.13;5094997;28;20056;-81
2022/03/28 08:20:16;;;;;;;10.60;1.48;;;;;;;-0.93;37.18;98906.69;5077053;28;20090;-80
2022/03/28 08:22:49;;;;;;;3.17;1.33;;;;;;;-0.92;37.22;98899.06;5061140;28;20048;-80
2022/03/28 08:25:19;;;;;;;5.35;1.50;;;;;;;-0.97;37.28;98902.28;5095238;28;20520;-82
2022/03/28 08:27:47;;;;;;;4.35;1.20;;;;;;;-0.88;37.84;98928.25;5094510;28;20055;-80
2022/03/28 08:30:13;;;;;;;4.22;1.50;;;;;;;-0.84;37.77;98905.31;5093677;28;20149;-79
2022/03/28 08:32:41;;;;;;;2.35;1.27;;;;;;;-0.96;38.08;98857.88;5076573;28;20044;-80
2022/03/28 08:35:10;;;;;;;3.40;1.23;;;;;;;-1.18;39.09;98899.84;5077961;28;20040;-80
2022/03/28 08:37:40;;;;;;;2.33;1.30;;;;;;;-1.30;39.46;98872.13;5097090;28;20142;-81
2022/03/28 08:40:16;;;;;;;5.70;2.47;;;;;;;-1.00;39.42;98858.59;5098420;28;20047;-81
2022/03/28 08:42:44;;;;;;;4.22;1.27;;;;;;;-0.97;39.80;98866.38;5097319;28;20075;-81
2022/03/28 08:45:14;;;;;;;6.30;2.47;;;;;;;-1.13;40.32;98855.63;5096939;28;20052;-82
2022/03/28 08:47:48;;;;;;;2.70;1.50;;;;;;;-1.31;40.75;98816.56;5094936;28;20048;-82
2022/03/28 08:50:38;;;;;;;4.95;1.38;;;;;;;-1.13;41.03;98834.25;5096792;28;20274;-82
2022/03/28 08:53:06;;;;;;;;;;;;;;;-0.99;40.68;98832.13;5079399;28;20143;-81
2022/03/28 08:55:33;;;;;;;3.92;1.45;;;;;;;-1.25;41.38;98786.91;5096891;28;19947;-81
2022/03/28 08:58:00;;;;;;;5.72;1.70;;;;;;;-1.14;41.87;98764.19;5079763;28;20048;-80
2022/03/28 09:00:28;;;;;;;6.45;1.83;;;;;;;-0.81;41.77;98808.78;5085000;28;20048;-83
2022/03/28 09:02:57;;;;;;;5.15;1.42;;;;;;;-1.01;42.68;98792.75;5063064;28;20059;-82
2022/03/28 09:05:47;;;;;;;3.38;1.50;;;;;;;-1.11;43.07;98771.09;5097922;28;20118;-82
2022/03/28 09:08:14;;;;;;;4.45;1.42;;;;;;;-1.36;44.07;98736.09;5081959;28;20047;-85
2022/03/28 09:10:47;;;;;;;5.35;1.40;;;;;;;-1.73;45.01;98691.34;5083630;28;20403;-84
2022/03/28 09:13:19;;;;;;;4.82;1.48;;;;;;;-1.29;45.33;98751.75;5103866;28;20131;-85
2022/03/28 09:15:49;;;;;;;2.83;1.23;;;;;;;-1.32;45.78;98764.44;5107373;28;20043;-82
2022/03/28 09:18:30;;;;;;;3.30;1.30;;;;;;;-1.26;45.81;98723.66;5095647;28;20055;-81
2022/03/28 09:21:01;;;;;;;5.05;1.85;;;;;;;-1.28;46.21;98706.47;5094368;28;20097;-82
2022/03/28 09:23:39;;;;;;;1.27;1.17;;;;;;;-1.22;46.86;98719.50;5083378;28;20058;-80
2022/03/28 09:26:16;;;;;;;3.22;1.15;;;;;;;-1.56;47.67;98726.06;5095980;28;20151;-82
2022/03/28 09:28:48;;;;;;;1.83;1.38;;;;;;;-1.83;48.63;98705.53;5078734;28;20537;-82
2022/03/28 09:31:20;;;;;;;2.00;1.10;;;;;;;-1.72;49.39;98705.88;5111834;28;20051;-82
2022/03/28 09:34:09;;;;;;;3.10;1.38;;;;;;;-1.41;48.41;98705.22;5099854;28;20056;-80
2022/03/28 09:36:52;;;;;;;1.33;1.23;;;;;;;-1.35;48.60;98692.63;5095809;28;20054;-82
2022/03/28 09:39:30;;;;;;;3.88;1.40;;;;;;;-1.54;49.52;98693.69;5095867;28;20141;-81
2022/03/28 09:42:03;;;;;;;1.77;1.20;;;;;;;-1.52;50.66;98683.50;5099373;28;20044;-77
2022/03/28 09:44:40;;;;;;;9.60;2.28;;;;;;;-1.54;51.07;98680.03;5060857;28;20051;-80
2022/03/28 09:47:13;;;;;;;3.20;1.60;;;;;;;-1.48;51.54;98662.31;5093693;28;20505;-81
2022/03/28 09:49:43;;;;;;;3.42;1.50;;;;;;;-1.42;51.95;98636.00;5060638;28;20146;-80
2022/03/28 09:52:17;;;;;;;1.55;0.68;;;;;;;-1.48;52.48;98657.19;5111492;28;20047;-81
2022/03/28 09:54:50;;;;;;;2.42;1.50;;;;;;;-1.38;52.71;98648.06;5116426;28;20047;-80
2022/03/28 09:57:32;;;;;;;3.17;1.70;;;;;;;-1.42;53.25;98626.59;5097368;28;20047;-80
2022/03/28 10:00:09;;;;;;;1.83;1.60;;;;;;;-1.75;54.32;98593.13;5106604;28;20494;-79
2022/03/28 10:02:37;;;;;;;3.08;1.63;;;;;;;-1.72;54.57;98606.91;5076649;28;20200;-81
2022/03/28 10:05:05;;;;;;;1.33;1.23;;;;;;;-1.41;54.14;98607.00;5077444;28;20056;-81
2022/03/28 10:07:33;;;;;;;5.55;1.85;;;;;;;-1.46;54.82;98592.38;5078752;28;20497;-79
2022/03/28 10:10:00;;;;;;;2.20;1.55;;;;;;;-1.45;54.60;98568.47;5043779;28;20097;-81
2022/03/28 10:12:28;;;;;;;3.97;1.45;;;;;;;-1.18;54.46;98574.38;5095870;28;20083;-82
2022/03/28 10:15:01;;;;;;;7.97;1.58;;;;;;;-0.96;54.47;98588.69;5096654;28;20570;-83
2022/03/28 10:17:31;;;;;;;2.00;1.55;;;;;;;-0.89;54.81;98582.91;5096648;28;20048;-84
2022/03/28 10:19:59;;;;;;;2.60;1.58;;;;;;;-0.96;55.33;98583.56;5098334;28;20052;-81
2022/03/28 10:22:50;;;;;;;4.80;1.98;;;;;;;-1.28;56.05;98570.69;5093602;28;20048;-80
2022/03/28 10:25:21;;;;;;;2.22;1.60;;;;;;;-1.31;56.55;98574.03;5077998;28;20045;-84
2022/03/28 10:27:51;;;;;;;4.07;1.60;;;;;;;-1.45;56.66;98540.28;5077084;28;20402;-80
2022/03/28 10:30:30;;;;;;;1.92;1.70;;;;;;;-1.61;57.31;98543.25;5067227;28;20052;-78
2022/03/28 10:33:08;;;;;;;2.27;1.77;;;;;;;-1.39;57.48;98546.44;5077845;28;20472;-79
2022/03/28 10:35:36;;;;;;;4.22;2.55;;;;;;;-1.39;57.86;98546.44;5090814;28;20059;-79
2022/03/28 10:38:18;;;;;;;5.22;2.00;;;;;;;-1.29;57.90;98543.31;5094922;28;20078;-80
2022/03/28 10:40:59;;;;;;;3.05;1.80;;;;;;;-1.34;57.81;98496.19;5095380;28;20056;-82
2022/03/28 10:43:29;;;;;;;2.35;1.50;;;;;;;-1.28;58.21;98514.31;5091894;28;20053;-79
2022/03/28 10:45:57;;;;;;;4.32;1.60;;;;;;;-1.49;58.75;98512.84;5074107;28;20101;-79
2022/03/28 10:48:48;;;;;;;2.22;1.50;;;;;;;-1.63;59.40;98526.06;5073405;28;20052;-81
2022/03/28 10:51:24;;;;;;;2.33;1.60;;;;;;;-1.61;59.76;98511.63;5073900;28;20533;-79
2022/03/28 10:53:58;;;;;;;2.25;1.33;;;;;;;-1.65;59.75;98511.53;5074104;28;20064;-79
2022/03/28 10:56:33;;;;;;;3.70;1.60;;;;;;;-1.71;60.21;98495.13;5074409;28;20052;-79
2022/03/28 10:59:06;;;;;;;2.13;1.42;;;;;;;-1.78;61.12;98482.97;5074898;28;20036;-79
2022/03/28 11:01:40;;;;;;;4.07;1.70;;;;;;;-1.74;61.08;98477.09;5073635;28;20048;-78
2022/03/28 11:04:23;;;;;;;2.47;1.45;;;;;;;-1.61;61.08;98473.19;5074370;28;20075;-79
2022/03/28 11:07:05;;;;;;;5.50;2.10;;;;;;;-1.80;61.26;98426.59;5074954;28;20453;-79
2022/03/28 11:09:46;;;;;;;3.67;2.00;;;;;;;-1.49;61.55;98447.94;5078166;28;20048;-78
2022/03/28 11:12:33;;;;;;;6.90;2.35;;;;;;;-1.54;61.66;98437.59;5074726;28;20147;-78
2022/03/28 11:15:10;;;;;;;3.92;1.40;;;;;;;-1.68;62.24;98421.84;5074155;28;20049;-79
2022/03/28 11:17:50;;;;;;;5.25;1.70;;;;;;;-1.47;62.22;98426.69;5074292;28;20052;-79
2022/03/28 11:20:23;;;;;;;2.83;2.00;;;;;;;-2.09;61.78;98326.81;5088569;28;20059;-80
2022/03/28 11:22:56;;;;;;;1.33;1.20;;;;;;;-1.53;62.32;98400.03;5094713;28;20063;-79
2022/03/28 11:25:38;;;;;;;3.53;1.80;;;;;;;-1.51;63.00;98401.81;5094177;28;20529;-79
2022/03/28 11:28:22;;;;;;;4.00;1.92;;;;;;;-1.48;62.24;98378.00;5075675;28;20097;-80
2022/03/28 11:31:09;;;;;;;2.40;1.80;;;;;;;-1.33;62.40;98388.66;5094296;28;20044;-79
2022/03/28 11:33:47;;;;;;;3.45;1.70;;;;;;;-1.18;62.08;98370.25;5094350;28;20079;-79
2022/03/28 11:36:20;;;;;;;4.05;2.20;;;;;;;-0.96;61.49;98363.13;5094326;28;20056;-79
2022/03/28 11:38:52;;;;;;;3.10;1.70;;;;;;;-1.06;61.36;98379.94;5093730;28;20048;-80
2022/03/28 11:41:23;;;;;;;2.45;2.00;;;;;;;-1.39;62.42;98329.56;5093668;28;20070;-79
2022/03/28 11:43:51;;;;;;;;;;;;;;;-1.46;62.55;98341.34;5094292;28;20150;-79